Aeroporto :
LOGIN :

Iscrizione | Disclaimer

   EN    FR    IT 

 










Sommario :    VFR   VFR Marginale   IFR   IFR Intensivo   IFR Molto Intensivo
Visibilità : 
Base nubi : 
>= 8 km
>= 3000ft
5 / 8 km
1000 / 3000 ft
1500m / 5 km
500 / 1000 ft
800 / 1500m
200 / 500 ft
< 800m
< 200 ft
Simboli :   Temporali  Nebbia  Neve Forte  Precipitazioni Forti  Vento > 20 kt
SIGMETs :   Varie  Temporali  Ghiacco  Turbolenza  Onda orograficha  Ceneri Vulcaniche






- Altitudine del aeroporto : 782 ft
- Codice IATA : BGY


LIME - Orio al Serio International - Bergamo

ULTIMO METAR :
  • 191820Z VRB02KT 9999 -RA OVC025 10/09 Q1015 NOSIG

METARs OBSOLETI :
  • 191750Z 01004KT 350V050 8000 -RA OVC025 09/09 Q1015 RERA NOSIG
  • 191720Z 01004KT 6000 -RA OVC025 09/09 Q1015 NOSIG
  • 191650Z 02004KT 6000 RA OVC025 10/09 Q1015 NOSIG
  • 191620Z 04003KT 5000 RA BR OVC025 10/09 Q1015 NOSIG
  • 191550Z 06004KT 4000 RA BR OVC030 10/09 Q1015 NOSIG

TAF TAF LIME
Valido dal 19 a 18 ore il 20 a 18 ore UTC


191700Z 1918/2018 VRB05KT 4000 DZ BKN012 OVC030
BECMG 2007/2010 7000 NSW SCT025 BKN060



MetMap, La meteo Aeronautica in un colpo d'occhio ! - Copyright ORBIFLY Dicembre 2007 - Disclaimer

ORBIFLY MET'MAP TEAM :

Programmazione e sviluppo : Alexandra Zaïnal
Concezione e sviluppo : Baudouin d'Aumeries
Co-Programmazione e sviluppo : Marc-Olivier Méhu
Supporto tecnico e logistico : Manuel Goepfert
Aiuto per la traduzione : Arnaldo La Scala

Contatto : metmap@orbifly.com




FONTI E CREDITI :

   NOAA